createdAt,value
2022-08-29T00:01:15.069Z,101857.00
2022-08-29T00:03:43.228Z,101851.06
2022-08-29T00:06:11.789Z,101848.19
2022-08-29T00:08:39.701Z,101844.19
2022-08-29T00:11:08.135Z,101847.59
2022-08-29T00:13:36.655Z,101847.16
2022-08-29T00:16:07.021Z,101847.84
2022-08-29T00:18:35.921Z,101837.53
2022-08-29T00:21:04.884Z,101840.97
2022-08-29T00:23:32.987Z,101835.69
2022-08-29T00:26:00.918Z,101843.50
2022-08-29T00:28:28.826Z,101840.97
2022-08-29T00:30:57.184Z,101838.56
2022-08-29T00:33:26.482Z,101843.94
2022-08-29T00:35:54.391Z,101841.88
2022-08-29T00:38:27.710Z,101838.56
2022-08-29T00:40:58.209Z,101842.81
2022-08-29T00:43:28.519Z,101838.28
2022-08-29T00:46:04.520Z,101840.94
2022-08-29T00:48:35.752Z,101834.50
2022-08-29T00:51:07.867Z,101841.50
2022-08-29T00:53:39.958Z,101848.09
2022-08-29T00:56:09.880Z,101839.06
2022-08-29T00:58:43.101Z,101839.06
2022-08-29T01:01:14.270Z,101841.81
2022-08-29T01:03:44.098Z,101834.38
2022-08-29T01:06:14.939Z,101833.47
2022-08-29T01:08:44.065Z,101837.69
2022-08-29T01:11:40.963Z,101848.09
2022-08-29T01:14:10.540Z,101844.75
2022-08-29T01:16:39.871Z,101851.84
2022-08-29T01:19:18.485Z,101848.75
2022-08-29T01:21:56.677Z,101846.03
2022-08-29T01:24:36.758Z,101848.75
2022-08-29T01:27:05.061Z,101855.06
2022-08-29T01:29:33.083Z,101849.56
2022-08-29T01:32:01.025Z,101845.22
2022-08-29T01:34:30.602Z,101847.50
2022-08-29T01:37:01.234Z,101852.88
2022-08-29T01:39:32.925Z,101853.91
2022-08-29T01:42:03.915Z,101851.34
2022-08-29T01:44:31.817Z,101855.94
2022-08-29T01:47:03.266Z,101855.00
2022-08-29T01:49:33.134Z,101866.19
2022-08-29T01:52:01.950Z,101857.03
2022-08-29T01:54:32.187Z,101866.28
2022-08-29T01:57:00.747Z,101858.22
2022-08-29T01:59:31.114Z,101859.72
2022-08-29T02:02:03.792Z,101857.16
2022-08-29T02:04:31.912Z,101862.53
2022-08-29T02:07:00.364Z,101856.91
2022-08-29T02:09:29.637Z,101866.97
2022-08-29T02:11:59.487Z,101866.78
2022-08-29T02:14:27.675Z,101866.19
2022-08-29T02:16:55.777Z,101864.44
2022-08-29T02:19:24.041Z,101872.25
2022-08-29T02:21:52.532Z,101875.53
2022-08-29T02:24:27.613Z,101870.38
2022-08-29T02:26:57.377Z,101869.59
2022-08-29T02:29:37.197Z,101865.56
2022-08-29T02:32:07.162Z,101870.56
2022-08-29T02:34:36.410Z,101880.28
2022-08-29T02:37:04.791Z,101885.63
2022-08-29T02:39:34.081Z,101875.31
2022-08-29T02:42:02.536Z,101877.59
2022-08-29T02:44:31.703Z,101870.50
2022-08-29T02:46:59.815Z,101879.06
2022-08-29T02:49:27.736Z,101869.53
2022-08-29T02:51:56.131Z,101862.00
2022-08-29T02:54:24.055Z,101875.22
2022-08-29T02:56:52.351Z,101880.22
2022-08-29T02:59:20.283Z,101884.13
2022-08-29T03:01:49.541Z,101879.31
2022-08-29T03:04:17.437Z,101879.31
2022-08-29T03:06:46.906Z,101871.06
2022-08-29T03:09:15.149Z,101871.06
2022-08-29T03:11:43.024Z,101875.41
2022-08-29T03:14:10.896Z,101879.75
2022-08-29T03:16:39.024Z,101866.06
2022-08-29T03:19:08.456Z,101868.47
2022-08-29T03:21:36.309Z,101870.41
2022-08-29T03:24:04.692Z,101863.66
2022-08-29T03:26:32.582Z,101858.97
2022-08-29T03:29:00.401Z,101860.56
2022-08-29T03:31:28.333Z,101855.09
2022-08-29T03:33:56.712Z,101858.63
2022-08-29T03:36:27.038Z,101855.09
2022-08-29T03:38:55.160Z,101855.09
2022-08-29T03:41:23.953Z,101859.78
2022-08-29T03:43:52.311Z,101856.22
2022-08-29T03:46:20.520Z,101858.97
2022-08-29T03:48:48.584Z,101855.72
2022-08-29T03:51:16.670Z,101860.75
2022-08-29T03:53:46.780Z,101858.69
2022-08-29T03:56:18.710Z,101852.25
2022-08-29T03:58:52.554Z,101846.63
2022-08-29T04:01:22.907Z,101851.16
2022-08-29T04:03:51.331Z,101845.53
2022-08-29T04:06:19.836Z,101846.97
2022-08-29T04:08:50.940Z,101842.97
2022-08-29T04:11:20.623Z,101845.25
2022-08-29T04:14:07.490Z,101852.50
2022-08-29T04:16:55.976Z,101844.16
2022-08-29T04:19:34.274Z,101852.97
2022-08-29T04:22:14.099Z,101856.38
2022-08-29T04:25:36.835Z,101856.41
2022-08-29T04:28:12.675Z,101861.88
2022-08-29T04:33:48.282Z,101855.00
2022-08-29T04:36:20.167Z,101853.34
2022-08-29T04:38:52.469Z,101848.53
2022-08-29T04:41:38.782Z,101852.75
2022-08-29T04:44:28.331Z,101855.31
2022-08-29T04:46:59.309Z,101860.31
2022-08-29T04:49:29.720Z,101864.53
2022-08-29T04:52:13.980Z,101873.84
2022-08-29T04:54:53.820Z,101876.94
2022-08-29T04:57:27.898Z,101880.81
2022-08-29T05:00:04.620Z,101870.50
2022-08-29T05:02:50.543Z,101874.22
2022-08-29T05:05:20.712Z,101864.72
2022-08-29T05:07:49.938Z,101868.56
2022-08-29T05:13:09.948Z,101859.88
2022-08-29T05:15:43.498Z,101870.81
2022-08-29T05:18:27.748Z,101878.56
2022-08-29T05:20:58.594Z,101878.56
2022-08-29T05:23:45.359Z,101876.16
2022-08-29T05:26:29.407Z,101871.50
2022-08-29T05:29:20.198Z,101882.44
2022-08-29T05:35:22.190Z,101898.22
2022-08-29T05:37:54.599Z,101895.31
2022-08-29T05:43:11.484Z,101885.63
2022-08-29T05:45:43.800Z,101893.66
2022-08-29T05:48:18.261Z,101889.16
2022-08-29T05:51:15.003Z,101883.03
2022-08-29T05:56:47.937Z,101886.88
2022-08-29T05:59:42.433Z,101884.94
2022-08-29T06:02:28.080Z,101883.16
2022-08-29T06:05:04.511Z,101881.22
2022-08-29T06:08:13.118Z,101890.41
2022-08-29T06:10:52.526Z,101902.13
2022-08-29T06:13:32.592Z,101903.69
2022-08-29T06:16:30.021Z,101908.38
2022-08-29T06:19:43.258Z,101903.69
2022-08-29T06:22:48.570Z,101903.31
2022-08-29T06:25:40.105Z,101902.47
2022-08-29T06:28:14.855Z,101895.19
2022-08-29T06:31:03.324Z,101895.38
2022-08-29T06:33:42.933Z,101903.13
2022-08-29T06:36:17.669Z,101896.97
2022-08-29T06:42:38.297Z,101915.59
2022-08-29T06:45:07.929Z,101916.84
2022-08-29T06:47:35.833Z,101911.63
2022-08-29T06:50:04.065Z,101904.94
2022-08-29T06:52:31.910Z,101917.69
2022-08-29T06:54:59.808Z,101908.47
2022-08-29T06:57:29.334Z,101908.16
2022-08-29T06:59:58.658Z,101910.34
2022-08-29T07:02:26.641Z,101916.97
2022-08-29T07:04:54.587Z,101914.97
2022-08-29T07:07:22.435Z,101918.44
2022-08-29T07:09:50.390Z,101928.78
2022-08-29T07:12:18.662Z,101917.53
2022-08-29T07:14:46.879Z,101917.16
2022-08-29T07:17:20.892Z,101917.75
2022-08-29T07:19:54.815Z,101914.47
2022-08-29T07:22:22.881Z,101917.91
2022-08-29T07:24:50.745Z,101916.47
2022-08-29T07:27:18.665Z,101920.88
2022-08-29T07:29:50.458Z,101915.13
2022-08-29T07:32:23.989Z,101920.38
2022-08-29T07:34:56.111Z,101919.47
2022-08-29T07:37:24.542Z,101927.22
2022-08-29T07:39:52.430Z,101928.63
2022-08-29T07:42:20.269Z,101921.50
2022-08-29T07:44:48.233Z,101926.53
2022-08-29T07:47:16.395Z,101926.53
2022-08-29T07:49:45.840Z,101923.53
2022-08-29T07:52:13.780Z,101916.06
2022-08-29T07:54:41.680Z,101909.97
2022-08-29T07:57:09.616Z,101900.63
2022-08-29T07:59:37.611Z,101908.13
2022-08-29T08:02:06.009Z,101913.91
2022-08-29T08:04:33.991Z,101910.91
2022-08-29T08:07:04.775Z,101905.94
2022-08-29T08:09:41.550Z,101908.72
2022-08-29T08:12:13.848Z,101912.78
2022-08-29T08:14:41.845Z,101918.81
2022-08-29T08:17:10.201Z,101919.31
2022-08-29T08:19:38.659Z,101924.53
2022-08-29T08:22:08.025Z,101929.47
2022-08-29T08:24:35.872Z,101931.63
2022-08-29T08:27:03.806Z,101927.09
2022-08-29T08:29:31.710Z,101930.25
2022-08-29T08:32:00.258Z,101925.72
2022-08-29T08:34:29.415Z,101932.19
2022-08-29T08:36:58.190Z,101926.16
2022-08-29T08:39:27.554Z,101931.03
2022-08-29T08:41:58.275Z,101927.59
2022-08-29T08:44:49.534Z,101932.41
2022-08-29T08:47:23.340Z,101938.44
2022-08-29T08:49:54.762Z,101934.34
2022-08-29T08:52:29.124Z,101939.53
2022-08-29T08:55:03.033Z,101934.44
2022-08-29T08:57:39.720Z,101938.22
2022-08-29T09:00:10.805Z,101941.19
2022-08-29T09:02:49.263Z,101935.06
2022-08-29T09:05:35.044Z,101935.16
2022-08-29T09:08:14.524Z,101938.56
2022-08-29T09:10:50.185Z,101932.75
2022-08-29T09:13:29.076Z,101936.81
2022-08-29T09:16:00.906Z,101937.97
2022-08-29T09:18:35.409Z,101930.03
2022-08-29T09:21:29.913Z,101935.34
2022-08-29T09:23:59.700Z,101925.88
2022-08-29T09:26:29.133Z,101921.22
2022-08-29T09:28:58.917Z,101921.75
2022-08-29T09:31:31.704Z,101929.00
2022-08-29T09:34:02.167Z,101931.63
2022-08-29T09:36:38.379Z,101930.41
2022-08-29T09:39:21.548Z,101935.69
2022-08-29T09:41:53.226Z,101929.97
2022-08-29T09:44:25.599Z,101940.66
2022-08-29T09:47:12.495Z,101935.50
2022-08-29T09:49:43.257Z,101926.94
2022-08-29T09:52:15.907Z,101922.28
2022-08-29T09:54:44.668Z,101910.47
2022-08-29T09:57:23.296Z,101914.50
2022-08-29T10:00:11.943Z,101910.69
2022-08-29T10:02:47.512Z,101903.56
2022-08-29T10:05:33.862Z,101909.22
2022-08-29T10:08:03.089Z,101905.31
2022-08-29T10:10:34.717Z,101903.84
2022-08-29T10:13:09.242Z,101901.19
2022-08-29T10:15:50.843Z,101897.69
2022-08-29T10:18:28.624Z,101906.50
2022-08-29T10:21:08.109Z,101894.66
2022-08-29T10:23:43.790Z,101890.69
2022-08-29T10:26:26.440Z,101884.72
2022-08-29T10:29:04.272Z,101886.22
2022-08-29T10:31:38.975Z,101900.47
2022-08-29T10:34:22.148Z,101895.28
2022-08-29T10:36:58.346Z,101891.38
2022-08-29T10:39:37.816Z,101887.44
2022-08-29T10:42:09.993Z,101880.75
2022-08-29T10:44:56.057Z,101877.97
2022-08-29T10:47:30.180Z,101886.72
2022-08-29T10:50:43.213Z,101883.16
2022-08-29T10:53:15.964Z,101877.97
2022-08-29T10:55:50.923Z,101877.97
2022-08-29T10:58:31.771Z,101868.41
2022-08-29T11:01:09.357Z,101872.00
2022-08-29T11:03:43.984Z,101873.94
2022-08-29T11:06:15.184Z,101876.34
2022-08-29T11:08:48.122Z,101863.53
2022-08-29T11:11:19.096Z,101853.94
2022-08-29T11:13:50.953Z,101856.31
2022-08-29T11:16:26.577Z,101851.19
2022-08-29T11:19:01.646Z,101856.75
2022-08-29T11:21:36.514Z,101840.41
2022-08-29T11:24:05.539Z,101836.44
2022-08-29T11:26:45.121Z,101849.22
2022-08-29T11:29:27.029Z,101833.34
2022-08-29T11:32:06.454Z,101832.94
2022-08-29T11:34:55.367Z,101818.13
2022-08-29T11:37:42.831Z,101824.06
2022-08-29T11:40:47.140Z,101823.66
2022-08-29T11:43:15.667Z,101818.03
2022-08-29T11:45:45.233Z,101815.53
2022-08-29T11:48:32.173Z,101820.81
2022-08-29T11:51:00.755Z,101826.31
2022-08-29T11:53:35.083Z,101819.91
2022-08-29T11:56:28.827Z,101825.06
2022-08-29T11:58:59.617Z,101816.13
2022-08-29T12:02:00.958Z,101809.72
2022-08-29T12:04:57.957Z,101804.97
2022-08-29T12:07:36.949Z,101810.88
2022-08-29T12:10:08.693Z,101815.19
2022-08-29T12:12:46.216Z,101816.94
2022-08-29T12:15:43.520Z,101810.63
2022-08-29T12:18:44.909Z,101801.00
2022-08-29T12:21:47.145Z,101804.03
2022-08-29T12:24:38.018Z,101793.47
2022-08-29T12:27:05.855Z,101792.91
2022-08-29T12:29:44.919Z,101790.91
2022-08-29T12:32:40.103Z,101787.41
2022-08-29T12:35:31.266Z,101786.25
2022-08-29T12:38:16.013Z,101781.34
2022-08-29T12:40:56.371Z,101786.78
2022-08-29T12:43:36.346Z,101778.25
2022-08-29T12:46:17.543Z,101779.91
2022-08-29T12:48:57.921Z,101779.41
2022-08-29T12:51:38.013Z,101773.00
2022-08-29T12:54:09.077Z,101763.66
2022-08-29T12:56:39.467Z,101769.84
2022-08-29T12:59:07.587Z,101769.88
2022-08-29T13:01:38.453Z,101770.56
2022-08-29T13:04:14.690Z,101764.22
2022-08-29T13:06:53.126Z,101751.38
2022-08-29T13:09:28.485Z,101744.38
2022-08-29T13:12:11.905Z,101743.94
2022-08-29T13:14:49.793Z,101748.06
2022-08-29T13:17:20.766Z,101746.72
2022-08-29T13:20:25.903Z,101748.59
2022-08-29T13:23:06.299Z,101748.03
2022-08-29T13:25:37.435Z,101754.25
2022-08-29T13:28:06.012Z,101750.28
2022-08-29T13:30:34.148Z,101752.66
2022-08-29T13:33:03.722Z,101736.47
2022-08-29T13:35:33.397Z,101737.84
2022-08-29T13:38:19.124Z,101737.41
2022-08-29T13:40:50.676Z,101733.78
2022-08-29T13:43:34.407Z,101722.59
2022-08-29T13:46:15.385Z,101728.28
2022-08-29T13:48:44.735Z,101727.19
2022-08-29T13:51:13.449Z,101729.09
2022-08-29T13:53:45.410Z,101720.47
2022-08-29T13:56:24.906Z,101728.06
2022-08-29T13:58:54.881Z,101718.66
2022-08-29T14:02:07.524Z,101716.09
2022-08-29T14:04:36.989Z,101714.25
2022-08-29T14:07:00.036Z,101710.97
2022-08-29T14:09:33.122Z,101697.47
2022-08-29T14:12:02.944Z,101699.34
2022-08-29T14:14:30.915Z,101689.81
2022-08-29T14:16:59.161Z,101692.72
2022-08-29T14:19:28.578Z,101688.28
2022-08-29T14:21:59.139Z,101684.38
2022-08-29T14:24:29.095Z,101689.50
2022-08-29T14:27:01.110Z,101690.06
2022-08-29T14:29:31.642Z,101685.22
2022-08-29T14:32:03.187Z,101680.19
2022-08-29T14:34:33.217Z,101686.09
2022-08-29T14:37:01.372Z,101678.94
2022-08-29T14:39:29.256Z,101680.53
2022-08-29T14:41:57.187Z,101676.84
2022-08-29T14:44:25.457Z,101683.31
2022-08-29T14:46:54.729Z,101687.69
2022-08-29T14:49:22.524Z,101690.84
2022-08-29T14:51:50.503Z,101685.13
2022-08-29T14:54:19.231Z,101670.63
2022-08-29T14:56:49.494Z,101673.16
2022-08-29T14:59:18.337Z,101667.19
2022-08-29T15:01:51.336Z,101671.38
2022-08-29T15:04:35.383Z,101672.94
2022-08-29T15:07:05.756Z,101665.19
2022-08-29T15:09:34.190Z,101662.19
2022-08-29T15:12:02.164Z,101665.00
2022-08-29T15:14:30.214Z,101659.31
2022-08-29T15:16:58.112Z,101651.41
2022-08-29T15:22:15.200Z,101659.13
2022-08-29T15:24:44.123Z,101651.09
2022-08-29T15:27:13.392Z,101654.41
2022-08-29T15:29:41.664Z,101651.09
2022-08-29T15:32:10.877Z,101643.03
2022-08-29T15:34:40.788Z,101634.59
2022-08-29T15:37:10.812Z,101629.00
2022-08-29T15:39:39.149Z,101630.19
2022-08-29T15:42:11.071Z,101621.53
2022-08-29T15:44:39.418Z,101623.69
2022-08-29T15:47:10.557Z,101622.03
2022-08-29T15:49:40.587Z,101620.44
2022-08-29T15:52:08.694Z,101620.44
2022-08-29T15:54:36.743Z,101617.66
2022-08-29T15:57:05.745Z,101615.63
2022-08-29T15:59:56.990Z,101613.22
2022-08-29T16:02:23.372Z,101614.81
2022-08-29T16:04:56.787Z,101613.75
2022-08-29T16:07:28.964Z,101609.03
2022-08-29T16:09:57.807Z,101612.94
2022-08-29T16:12:25.707Z,101601.66
2022-08-29T16:15:01.977Z,101608.97
2022-08-29T16:17:32.632Z,101606.78
2022-08-29T16:20:02.663Z,101602.88
2022-08-29T16:22:30.974Z,101600.84
2022-08-29T16:24:59.378Z,101597.63
2022-08-29T16:27:27.709Z,101601.28
2022-08-29T16:29:57.327Z,101604.53
2022-08-29T16:32:25.398Z,101597.41
2022-08-29T16:34:53.356Z,101605.75
2022-08-29T16:37:22.843Z,101600.63
2022-08-29T16:39:50.854Z,101608.31
2022-08-29T16:42:18.917Z,101603.22
2022-08-29T16:44:47.059Z,101612.91
2022-08-29T16:47:15.315Z,101613.94
2022-08-29T16:49:43.229Z,101608.34
2022-08-29T16:52:11.249Z,101611.56
2022-08-29T16:54:40.584Z,101607.97
2022-08-29T16:57:08.508Z,101603.63
2022-08-29T16:59:37.109Z,101604.44
2022-08-29T17:02:05.574Z,101610.88
2022-08-29T17:04:33.736Z,101604.44
2022-08-29T17:07:02.484Z,101608.06
2022-08-29T17:09:29.736Z,101610.09
2022-08-29T17:11:57.887Z,101605.91
2022-08-29T17:14:29.098Z,101605.59
2022-08-29T17:16:57.368Z,101605.72
2022-08-29T17:19:25.761Z,101599.34
2022-08-29T17:21:53.681Z,101603.38
2022-08-29T17:24:22.238Z,101605.00
2022-08-29T17:26:50.164Z,101603.84
2022-08-29T17:29:19.442Z,101607.81
2022-08-29T17:31:47.385Z,101609.09
2022-08-29T17:34:16.227Z,101602.00
2022-08-29T17:36:44.683Z,101602.97
2022-08-29T17:39:13.271Z,101612.56
2022-08-29T17:41:41.516Z,101610.22
2022-08-29T17:44:11.104Z,101619.03
2022-08-29T17:46:40.463Z,101610.31
2022-08-29T17:49:10.422Z,101626.31
2022-08-29T17:51:40.243Z,101616.81
2022-08-29T17:54:12.263Z,101620.09
2022-08-29T17:56:44.291Z,101609.78
2022-08-29T17:59:12.774Z,101620.13
2022-08-29T18:01:42.274Z,101625.72
2022-08-29T18:04:10.390Z,101622.56
2022-08-29T18:06:38.996Z,101627.34
2022-08-29T18:09:08.386Z,101626.19
2022-08-29T18:11:39.505Z,101625.41
2022-08-29T18:14:10.826Z,101619.47
2022-08-29T18:16:39.542Z,101625.06
2022-08-29T18:19:09.134Z,101626.69
2022-08-29T18:21:37.074Z,101624.31
2022-08-29T18:24:06.169Z,101631.47
2022-08-29T18:26:34.979Z,101629.50
2022-08-29T18:29:02.851Z,101625.13
2022-08-29T18:31:30.771Z,101628.34
2022-08-29T18:34:01.036Z,101630.72
2022-08-29T18:36:31.355Z,101626.34
2022-08-29T18:38:59.413Z,101630.31
2022-08-29T18:41:27.455Z,101629.94
2022-08-29T18:43:55.391Z,101634.69
2022-08-29T18:46:23.508Z,101627.16
2022-08-29T18:48:51.804Z,101626.38
2022-08-29T18:51:20.388Z,101627.94
2022-08-29T18:53:50.694Z,101627.53
2022-08-29T18:56:18.859Z,101626.72
2022-08-29T18:58:46.804Z,101623.94
2022-08-29T19:01:27.132Z,101632.25
2022-08-29T19:03:57.424Z,101626.69
2022-08-29T19:06:27.530Z,101629.88
2022-08-29T19:08:57.949Z,101629.88
2022-08-29T19:11:27.018Z,101640.16
2022-08-29T19:13:55.090Z,101634.59
2022-08-29T19:16:24.382Z,101640.91
2022-08-29T19:18:52.926Z,101637.69
2022-08-29T19:21:20.014Z,101647.16
2022-08-29T19:23:52.568Z,101651.09
2022-08-29T19:26:27.136Z,101647.50
2022-08-29T19:28:58.179Z,101656.97
2022-08-29T19:31:29.197Z,101651.00
2022-08-29T19:33:57.538Z,101657.31
2022-08-29T19:36:25.704Z,101656.47
2022-08-29T19:38:53.786Z,101649.28
2022-08-29T19:41:25.083Z,101646.13
2022-08-29T19:43:53.279Z,101646.47
2022-08-29T19:46:24.644Z,101643.25
2022-08-29T19:48:52.720Z,101649.94
2022-08-29T19:51:24.789Z,101656.25
2022-08-29T19:53:53.455Z,101652.25
2022-08-29T19:56:23.829Z,101660.56
2022-08-29T19:58:54.637Z,101655.81
2022-08-29T20:01:22.774Z,101653.78
2022-08-29T20:03:50.686Z,101658.94
2022-08-29T20:06:20.621Z,101663.28
2022-08-29T20:08:48.552Z,101657.69
2022-08-29T20:11:19.120Z,101652.91
2022-08-29T20:13:51.886Z,101657.63
2022-08-29T20:16:22.576Z,101656.38
2022-08-29T20:18:51.913Z,101657.50
2022-08-29T20:21:20.987Z,101650.69
2022-08-29T20:23:57.105Z,101651.03
2022-08-29T20:26:27.177Z,101653.25
2022-08-29T20:28:58.331Z,101653.63
2022-08-29T20:31:26.513Z,101657.50
2022-08-29T20:33:54.714Z,101662.97
2022-08-29T20:36:41.593Z,101657.69
2022-08-29T20:39:11.558Z,101652.84
2022-08-29T20:41:39.645Z,101660.31
2022-08-29T20:44:10.954Z,101658.25
2022-08-29T20:46:41.117Z,101659.00
2022-08-29T20:49:09.654Z,101660.44
2022-08-29T20:51:38.401Z,101666.63
2022-08-29T20:54:07.282Z,101666.16
2022-08-29T20:56:35.201Z,101671.59
2022-08-29T20:59:03.129Z,101669.59
2022-08-29T21:01:33.280Z,101669.22
2022-08-29T21:04:21.026Z,101671.19
2022-08-29T21:06:51.382Z,101667.94
2022-08-29T21:09:19.280Z,101670.28
2022-08-29T21:11:47.264Z,101677.38
2022-08-29T21:14:15.209Z,101673.44
2022-08-29T21:16:44.417Z,101676.19
2022-08-29T21:19:12.932Z,101675.34
2022-08-29T21:21:42.598Z,101679.69
2022-08-29T21:24:11.356Z,101673.38
2022-08-29T21:26:40.155Z,101671.41
2022-08-29T21:29:09.067Z,101682.03
2022-08-29T21:31:37.626Z,101674.81
2022-08-29T21:34:10.349Z,101677.09
2022-08-29T21:36:39.864Z,101676.19
2022-08-29T21:39:09.900Z,101671.34
2022-08-29T21:41:40.725Z,101671.31
2022-08-29T21:44:10.687Z,101670.84
2022-08-29T21:46:42.995Z,101677.16
2022-08-29T21:49:14.102Z,101669.59
2022-08-29T21:51:41.981Z,101671.88
2022-08-29T21:54:13.344Z,101676.09
2022-08-29T21:56:42.379Z,101678.78
2022-08-29T21:59:11.723Z,101672.81
2022-08-29T22:01:40.517Z,101665.28
2022-08-29T22:04:10.141Z,101668.34
2022-08-29T22:06:41.258Z,101665.97
2022-08-29T22:09:10.682Z,101673.00
2022-08-29T22:11:39.845Z,101679.28
2022-08-29T22:14:08.682Z,101681.63
2022-08-29T22:16:37.126Z,101677.25
2022-08-29T22:19:07.639Z,101684.75
2022-08-29T22:21:37.862Z,101689.09
2022-08-29T22:24:07.908Z,101688.38
2022-08-29T22:26:36.769Z,101695.09
2022-08-29T22:29:05.565Z,101699.13
2022-08-29T22:31:33.918Z,101699.91
2022-08-29T22:34:03.882Z,101708.19
2022-08-29T22:36:34.306Z,101702.69
2022-08-29T22:39:02.360Z,101698.38
2022-08-29T22:41:31.726Z,101702.38
2022-08-29T22:46:49.325Z,101704.69
2022-08-29T22:49:18.012Z,101704.34
2022-08-29T22:51:46.601Z,101711.81
2022-08-29T22:54:31.641Z,101709.28
2022-08-29T22:57:04.434Z,101707.66
2022-08-29T22:59:32.433Z,101713.09
2022-08-29T23:02:01.938Z,101712.59
2022-08-29T23:04:30.286Z,101704.16
2022-08-29T23:06:58.427Z,101717.56
2022-08-29T23:09:26.321Z,101717.56
2022-08-29T23:11:54.477Z,101719.91
2022-08-29T23:14:24.120Z,101715.88
2022-08-29T23:16:55.834Z,101726.00
2022-08-29T23:19:23.697Z,101715.69
2022-08-29T23:21:51.816Z,101715.97
2022-08-29T23:24:20.941Z,101713.59
2022-08-29T23:26:49.248Z,101711.63
2022-08-29T23:29:17.197Z,101710.44
2022-08-29T23:31:46.518Z,101713.22
2022-08-29T23:34:14.905Z,101713.16
2022-08-29T23:36:42.894Z,101713.44
2022-08-29T23:39:11.054Z,101715.78
2022-08-29T23:41:38.944Z,101718.88
2022-08-29T23:44:06.882Z,101718.06
2022-08-29T23:46:34.827Z,101713.81
2022-08-29T23:49:05.361Z,101717.78
2022-08-29T23:51:33.658Z,101722.94
2022-08-29T23:54:01.756Z,101718.31
2022-08-29T23:56:29.729Z,101715.53
2022-08-29T23:58:57.904Z,101707.25
